Time;durP1;ratioP1;P1;durP2;ratioP2;P2;SDS_P1;SDS_P2;PMS_P1;PMS_P2;Temp;Humidity;BMP_temperature;BMP_pressure;BME280_temperature;BME280_humidity;BME280_pressure;Samples;Min_cycle;Max_cycle;Signal;HPM_P1;HPM_P2
2022/05/23 00:01:21;;;;;;;5.93;3.60;;;;;;;;;;5037336;28;20564;-62
2022/05/23 00:03:47;;;;;;;5.70;3.60;;;;;;;;;;5055321;28;20666;-62
2022/05/23 00:06:16;;;;;;;4.00;3.23;;;;;;;;;;5055163;28;20217;-62
2022/05/23 00:08:42;;;;;;;4.80;3.50;;;;;;;;;;5037142;28;20174;-62
2022/05/23 00:11:08;;;;;;;7.00;3.57;;;;;;;;;;5055185;28;20262;-62
2022/05/23 00:13:34;;;;;;;4.00;3.00;;;;;;;;;;5055079;28;20185;-62
2022/05/23 00:16:00;;;;;;;5.83;3.13;;;;;;;;;;5036981;28;20206;-62
2022/05/23 00:18:26;;;;;;;3.63;3.10;;;;;;;;;;5054822;28;20269;-62
2022/05/23 00:20:52;;;;;;;6.73;3.60;;;;;;;;;;5055088;28;20189;-63
2022/05/23 00:23:18;;;;;;;6.20;3.37;;;;;;;;;;5054956;28;20205;-63
2022/05/23 00:25:44;;;;;;;5.70;3.60;;;;;;;;;;5036938;28;20185;-64
2022/05/23 00:28:10;;;;;;;3.97;3.17;;;;;;;;;;5054643;28;20231;-63
2022/05/23 00:30:36;;;;;;;6.60;3.60;;;;;;;;;;5054705;28;20550;-64
2022/05/23 00:35:51;;;;;;;6.87;3.77;;;;;;;;;;5054843;28;20309;-63
2022/05/23 00:38:17;;;;;;;4.67;3.47;;;;;;;;;;5036437;28;20269;-64
2022/05/23 00:40:43;;;;;;;3.53;3.20;;;;;;;;;;5036448;28;20604;-63
2022/05/23 00:43:17;;;;;;;6.77;4.13;;;;;;;;;;5036490;28;20570;-64
2022/05/23 00:45:53;;;;;;;5.93;3.97;;;;;;;;;;5036327;28;20182;-63
2022/05/23 00:48:21;;;;;;;4.63;3.13;;;;;;;;;;5036619;28;20178;-63
2022/05/23 00:50:49;;;;;;;6.07;3.80;;;;;;;;;;5054216;28;20249;-63
2022/05/23 00:53:16;;;;;;;4.17;3.37;;;;;;;;;;5054758;28;20319;-64
2022/05/23 00:55:48;;;;;;;3.73;3.23;;;;;;;;;;5035903;28;20283;-63
2022/05/23 00:58:19;;;;;;;4.60;3.27;;;;;;;;;;5036129;28;20189;-63
2022/05/23 01:00:45;;;;;;;5.50;3.43;;;;;;;;;;5036027;28;20189;-64
2022/05/23 01:03:13;;;;;;;5.37;3.50;;;;;;;;;;5035980;28;20202;-63
2022/05/23 01:05:40;;;;;;;7.20;3.03;;;;;;;;;;5053328;28;20206;-63
2022/05/23 01:08:06;;;;;;;5.47;3.50;;;;;;;;;;5053901;28;20183;-63
2022/05/23 01:10:33;;;;;;;6.53;3.60;;;;;;;;;;5053801;28;20174;-64
2022/05/23 01:12:59;;;;;;;6.03;3.57;;;;;;;;;;5035857;28;20221;-64
2022/05/23 01:15:27;;;;;;;5.93;3.30;;;;;;;;;;5053970;28;20223;-64
2022/05/23 01:17:53;;;;;;;4.50;3.37;;;;;;;;;;5053617;28;20232;-64
2022/05/23 01:20:20;;;;;;;5.47;3.60;;;;;;;;;;5053641;28;20181;-63
2022/05/23 01:22:55;;;;;;;5.27;3.80;;;;;;;;;;5035615;28;20212;-63
2022/05/23 01:25:21;;;;;;;5.20;3.47;;;;;;;;;;5053629;28;20265;-64
2022/05/23 01:27:47;;;;;;;3.50;3.20;;;;;;;;;;5053586;28;20252;-64
2022/05/23 01:30:14;;;;;;;4.73;3.50;;;;;;;;;;5053812;28;20581;-64
2022/05/23 01:32:40;;;;;;;10.23;3.43;;;;;;;;;;5053420;28;20174;-64
2022/05/23 01:35:07;;;;;;;4.50;2.93;;;;;;;;;;5035568;28;20193;-64
2022/05/23 01:37:33;;;;;;;3.63;2.53;;;;;;;;;;5053396;28;20662;-63
2022/05/23 01:39:59;;;;;;;3.50;2.80;;;;;;;;;;5053466;28;20254;-63
2022/05/23 01:42:25;;;;;;;3.37;2.60;;;;;;;;;;5053573;28;20216;-64
2022/05/23 01:44:51;;;;;;;4.10;2.97;;;;;;;;;;5035275;28;20202;-64
2022/05/23 01:47:18;;;;;;;6.23;2.80;;;;;;;;;;5053450;28;20190;-65
2022/05/23 01:49:44;;;;;;;3.60;2.27;;;;;;;;;;5053279;28;20185;-63
2022/05/23 01:52:15;;;;;;;7.23;2.50;;;;;;;;;;5053104;28;20175;-63
2022/05/23 01:54:41;;;;;;;3.10;2.53;;;;;;;;;;5053143;28;20274;-64
2022/05/23 01:57:08;;;;;;;2.50;2.30;;;;;;;;;;5053069;28;20210;-64
2022/05/23 02:02:19;;;;;;;5.67;2.60;;;;;;;;;;5053457;28;20177;-63
2022/05/23 02:04:45;;;;;;;2.50;2.17;;;;;;;;;;5035176;28;20624;-64
2022/05/23 02:07:12;;;;;;;4.07;2.33;;;;;;;;;;5053093;28;20241;-64
2022/05/23 02:09:38;;;;;;;3.10;2.30;;;;;;;;;;5053136;28;20228;-64
2022/05/23 02:12:05;;;;;;;3.63;3.07;;;;;;;;;;5053321;28;20175;-65
2022/05/23 02:14:31;;;;;;;3.10;2.27;;;;;;;;;;5052972;28;20184;-64
2022/05/23 02:16:57;;;;;;;3.60;2.20;;;;;;;;;;5052978;28;20269;-64
2022/05/23 02:19:23;;;;;;;4.23;2.47;;;;;;;;;;5056908;28;20711;-63
2022/05/23 02:21:49;;;;;;;3.33;2.30;;;;;;;;;;5039064;28;20190;-64
2022/05/23 02:24:15;;;;;;;4.43;2.50;;;;;;;;;;5039144;28;20210;-65
2022/05/23 02:26:41;;;;;;;4.57;2.30;;;;;;;;;;5057141;28;20201;-63
2022/05/23 02:29:08;;;;;;;2.50;2.13;;;;;;;;;;5057029;28;20193;-65
2022/05/23 02:31:34;;;;;;;4.67;2.60;;;;;;;;;;5057073;28;20170;-64
2022/05/23 02:34:00;;;;;;;2.70;2.43;;;;;;;;;;5056787;28;20301;-63
2022/05/23 02:36:26;;;;;;;3.77;2.60;;;;;;;;;;5057172;28;20233;-64
2022/05/23 02:38:52;;;;;;;2.67;2.40;;;;;;;;;;5038734;28;20230;-64
2022/05/23 02:41:18;;;;;;;3.00;2.17;;;;;;;;;;5056620;28;20630;-64
2022/05/23 02:43:44;;;;;;;3.13;2.03;;;;;;;;;;5038837;28;20255;-63
2022/05/23 02:46:10;;;;;;;2.50;2.30;;;;;;;;;;5038670;28;20256;-63
2022/05/23 02:48:36;;;;;;;3.93;2.30;;;;;;;;;;5056417;28;20598;-63
2022/05/23 02:51:02;;;;;;;3.70;2.50;;;;;;;;;;5056569;28;20262;-63
2022/05/23 02:53:28;;;;;;;2.50;2.30;;;;;;;;;;5056675;28;20240;-63
2022/05/23 02:55:54;;;;;;;3.63;2.47;;;;;;;;;;5038365;28;20658;-63
2022/05/23 02:58:20;;;;;;;2.50;2.30;;;;;;;;;;5056671;28;20571;-63
2022/05/23 03:00:46;;;;;;;5.50;2.60;;;;;;;;;;5056347;28;20266;-63
2022/05/23 03:03:12;;;;;;;3.00;2.37;;;;;;;;;;5056056;28;20210;-63
2022/05/23 03:05:40;;;;;;;2.40;2.20;;;;;;;;;;5056417;28;20170;-62
2022/05/23 03:08:06;;;;;;;2.30;2.20;;;;;;;;;;5038259;28;20666;-63
2022/05/23 03:10:32;;;;;;;2.97;2.40;;;;;;;;;;5056369;28;20527;-63
2022/05/23 03:12:58;;;;;;;4.57;2.47;;;;;;;;;;5038202;28;20177;-63
2022/05/23 03:15:24;;;;;;;3.50;2.40;;;;;;;;;;5038187;28;20182;-64
2022/05/23 03:17:50;;;;;;;3.17;2.87;;;;;;;;;;5055912;28;20195;-64
2022/05/23 03:20:16;;;;;;;2.73;2.50;;;;;;;;;;5038055;28;20562;-64
2022/05/23 03:28:12;;;;;;;2.40;2.20;;;;;;;;;;5055521;28;20546;-64
2022/05/23 03:30:37;;;;;;;2.87;2.57;;;;;;;;;;5055977;28;20174;-65
2022/05/23 03:33:04;;;;;;;3.03;2.27;;;;;;;;;;5037781;28;20817;-63
2022/05/23 03:35:30;;;;;;;4.47;2.60;;;;;;;;;;5055490;28;20272;-64
2022/05/23 03:37:57;;;;;;;4.57;2.40;;;;;;;;;;5037703;28;20206;-64
2022/05/23 03:40:23;;;;;;;3.50;2.47;;;;;;;;;;5037593;28;20595;-66
2022/05/23 03:42:49;;;;;;;3.40;2.43;;;;;;;;;;5037572;28;20174;-64
2022/05/23 03:45:15;;;;;;;3.57;2.37;;;;;;;;;;5055791;28;20237;-64
2022/05/23 03:47:41;;;;;;;3.53;2.40;;;;;;;;;;5037578;28;20609;-64
2022/05/23 03:50:08;;;;;;;5.67;2.77;;;;;;;;;;5055324;28;20213;-63
2022/05/23 03:52:34;;;;;;;4.00;2.93;;;;;;;;;;5037498;28;20269;-63
2022/05/23 03:55:00;;;;;;;4.73;2.50;;;;;;;;;;5055490;28;20266;-65
2022/05/23 03:57:25;;;;;;;2.90;2.70;;;;;;;;;;5055240;28;20221;-64
2022/05/23 03:59:54;;;;;;;3.63;2.60;;;;;;;;;;5055717;28;20186;-64
2022/05/23 04:02:20;;;;;;;4.13;2.60;;;;;;;;;;5055674;28;20175;-64
2022/05/23 04:04:47;;;;;;;6.40;3.10;;;;;;;;;;5037689;28;20263;-63
2022/05/23 04:07:13;;;;;;;5.13;3.23;;;;;;;;;;5055342;28;20198;-62
2022/05/23 04:09:40;;;;;;;6.60;3.10;;;;;;;;;;5055899;28;20550;-62
2022/05/23 04:12:06;;;;;;;7.33;3.07;;;;;;;;;;5037266;28;20278;-64
2022/05/23 04:14:32;;;;;;;7.23;3.00;;;;;;;;;;5055195;28;20174;-63
2022/05/23 04:16:58;;;;;;;4.23;2.83;;;;;;;;;;5054851;28;20202;-62
2022/05/23 04:19:25;;;;;;;5.40;2.93;;;;;;;;;;5054919;28;20227;-64
2022/05/23 04:21:51;;;;;;;3.33;2.67;;;;;;;;;;5055093;28;20216;-63
2022/05/23 04:24:17;;;;;;;3.57;3.03;;;;;;;;;;5054650;28;20295;-63
2022/05/23 04:26:43;;;;;;;4.60;2.90;;;;;;;;;;5036829;28;20203;-63
2022/05/23 04:29:09;;;;;;;3.90;2.67;;;;;;;;;;5055153;28;20178;-63
2022/05/23 04:31:36;;;;;;;4.53;2.50;;;;;;;;;;5054816;28;20174;-63
2022/05/23 04:36:48;;;;;;;3.60;2.70;;;;;;;;;;5056011;28;20217;-63
2022/05/23 04:39:14;;;;;;;3.73;2.70;;;;;;;;;;5054974;28;20189;-62
2022/05/23 04:41:40;;;;;;;3.53;2.93;;;;;;;;;;5054488;28;20617;-63
2022/05/23 04:44:07;;;;;;;4.23;2.97;;;;;;;;;;5055686;28;20206;-63
2022/05/23 04:46:33;;;;;;;3.50;3.20;;;;;;;;;;5055379;28;20704;-63
2022/05/23 04:51:44;;;;;;;6.50;3.60;;;;;;;;;;5055502;28;20224;-65
2022/05/23 04:54:10;;;;;;;4.47;2.97;;;;;;;;;;5036525;28;20190;-64
2022/05/23 04:56:37;;;;;;;4.57;3.40;;;;;;;;;;5036603;28;20221;-63
2022/05/23 04:59:03;;;;;;;5.03;4.17;;;;;;;;;;5054395;28;20206;-64
2022/05/23 05:01:29;;;;;;;6.17;4.10;;;;;;;;;;5054317;28;20209;-63
2022/05/23 05:03:57;;;;;;;5.93;3.97;;;;;;;;;;5036253;28;20733;-64
2022/05/23 05:06:23;;;;;;;5.87;4.00;;;;;;;;;;5054168;28;20692;-64
2022/05/23 05:08:49;;;;;;;4.50;3.80;;;;;;;;;;5054383;28;20219;-63
2022/05/23 05:11:15;;;;;;;5.77;4.20;;;;;;;;;;5054402;28;20170;-63
2022/05/23 05:13:43;;;;;;;5.20;3.87;;;;;;;;;;5054189;28;20262;-64
2022/05/23 05:16:10;;;;;;;4.53;3.93;;;;;;;;;;5053892;28;20658;-64
2022/05/23 05:18:36;;;;;;;8.13;4.10;;;;;;;;;;5053773;28;20185;-63
2022/05/23 05:21:06;;;;;;;6.17;4.60;;;;;;;;;;5053932;28;20704;-64
2022/05/23 05:23:32;;;;;;;10.07;4.63;;;;;;;;;;5053827;28;20328;-64
2022/05/23 05:25:58;;;;;;;5.63;4.40;;;;;;;;;;5053852;28;20693;-64
2022/05/23 05:28:23;;;;;;;5.97;3.53;;;;;;;;;;5036017;28;20182;-63
2022/05/23 05:30:57;;;;;;;7.53;5.07;;;;;;;;;;5054151;28;20183;-65
2022/05/23 05:33:26;;;;;;;9.57;4.53;;;;;;;;;;5053712;28;20162;-64
2022/05/23 05:35:58;;;;;;;5.70;4.50;;;;;;;;;;5054046;28;20281;-64
2022/05/23 05:38:27;;;;;;;6.37;4.50;;;;;;;;;;5053530;28;20186;-65
2022/05/23 05:40:56;;;;;;;9.87;4.80;;;;;;;;;;5053400;28;20666;-64
2022/05/23 05:43:30;;;;;;;6.07;4.43;;;;;;;;;;5035491;28;20209;-63
2022/05/23 05:46:06;;;;;;;5.90;4.90;;;;;;;;;;5054146;28;20197;-63
2022/05/23 05:48:36;;;;;;;8.27;4.73;;;;;;;;;;5053572;28;20151;-64
2022/05/23 05:51:02;;;;;;;6.60;4.67;;;;;;;;;;5053214;28;20668;-64
2022/05/23 05:53:30;;;;;;;6.10;4.70;;;;;;;;;;5053476;28;20598;-62
2022/05/23 05:55:57;;;;;;;7.10;5.17;;;;;;;;;;5053506;28;20198;-63
2022/05/23 05:58:23;;;;;;;4.67;3.97;;;;;;;;;;5054039;28;20166;-64
2022/05/23 06:00:49;;;;;;;5.87;5.00;;;;;;;;;;5053362;28;20304;-62
2022/05/23 06:03:15;;;;;;;6.47;4.80;;;;;;;;;;5035183;28;20182;-62
2022/05/23 06:11:29;;;;;;;9.30;4.40;;;;;;;;;;5053688;28;20714;-63
2022/05/23 06:13:59;;;;;;;7.87;6.07;;;;;;;;;;5052954;28;20162;-62
2022/05/23 06:16:25;;;;;;;7.43;5.17;;;;;;;;;;5052710;28;20282;-62
2022/05/23 06:18:51;;;;;;;7.33;4.80;;;;;;;;;;5053001;28;20201;-63
2022/05/23 06:21:17;;;;;;;10.03;5.97;;;;;;;;;;5053076;28;20703;-62
2022/05/23 06:23:46;;;;;;;9.97;5.97;;;;;;;;;;5052730;28;20205;-63
2022/05/23 06:26:13;;;;;;;8.13;5.17;;;;;;;;;;5053050;28;20339;-63
2022/05/23 06:28:39;;;;;;;8.27;5.33;;;;;;;;;;5052746;28;20647;-63
2022/05/23 06:31:05;;;;;;;9.83;4.80;;;;;;;;;;5052842;28;20182;-63
2022/05/23 06:33:30;;;;;;;7.03;4.90;;;;;;;;;;5052725;28;20182;-63
2022/05/23 06:35:57;;;;;;;11.03;5.60;;;;;;;;;;5052738;28;20217;-63
2022/05/23 06:38:24;;;;;;;9.90;5.37;;;;;;;;;;5052958;28;20190;-63
2022/05/23 06:40:51;;;;;;;5.57;4.47;;;;;;;;;;5053801;28;20190;-63
2022/05/23 06:43:17;;;;;;;4.83;4.10;;;;;;;;;;5052683;28;20179;-63
2022/05/23 06:45:43;;;;;;;10.40;4.17;;;;;;;;;;5052594;28;20228;-63
2022/05/23 06:48:10;;;;;;;7.67;4.40;;;;;;;;;;5052555;28;20179;-63
2022/05/23 06:50:36;;;;;;;6.67;4.97;;;;;;;;;;5053301;28;20266;-63
2022/05/23 06:53:02;;;;;;;8.80;5.43;;;;;;;;;;5052777;28;20198;-62
2022/05/23 06:55:28;;;;;;;8.07;5.40;;;;;;;;;;5053233;28;20202;-64
2022/05/23 06:57:54;;;;;;;6.77;4.37;;;;;;;;;;5052846;28;20339;-63
2022/05/23 07:00:20;;;;;;;6.63;5.30;;;;;;;;;;5053247;28;20175;-63
2022/05/23 07:02:46;;;;;;;8.30;5.50;;;;;;;;;;5052780;28;20178;-63
2022/05/23 07:13:27;;;;;;;7.13;3.90;;;;;;;;;;5056061;28;20189;-63
2022/05/23 07:15:53;;;;;;;6.33;3.70;;;;;;;;;;5055721;28;20201;-63
2022/05/23 07:18:19;;;;;;;6.77;4.23;;;;;;;;;;5055820;28;20602;-63
2022/05/23 07:20:46;;;;;;;6.70;4.10;;;;;;;;;;5055894;28;20182;-63
2022/05/23 07:23:12;;;;;;;5.80;3.90;;;;;;;;;;5055614;28;20187;-63
2022/05/23 07:25:38;;;;;;;6.10;4.07;;;;;;;;;;5055563;28;20179;-63
2022/05/23 07:28:05;;;;;;;6.90;3.20;;;;;;;;;;5055602;28;20718;-63
2022/05/23 07:30:31;;;;;;;5.23;2.93;;;;;;;;;;5055461;28;20202;-63
2022/05/23 07:32:57;;;;;;;3.53;2.47;;;;;;;;;;5055435;28;20258;-63
2022/05/23 07:35:24;;;;;;;4.07;2.83;;;;;;;;;;5056258;28;20608;-63
2022/05/23 07:37:50;;;;;;;4.23;2.30;;;;;;;;;;5055390;28;20236;-63
2022/05/23 07:40:17;;;;;;;3.23;2.23;;;;;;;;;;5055378;28;20190;-63
2022/05/23 07:42:43;;;;;;;2.47;2.27;;;;;;;;;;5055357;28;20304;-63
2022/05/23 07:45:10;;;;;;;2.50;2.17;;;;;;;;;;5055310;28;20288;-63
2022/05/23 07:47:36;;;;;;;2.20;2.00;;;;;;;;;;5055078;28;20201;-63
2022/05/23 07:50:02;;;;;;;3.00;2.20;;;;;;;;;;5055103;28;20170;-64
2022/05/23 07:52:28;;;;;;;3.10;2.10;;;;;;;;;;5055207;28;20178;-63
2022/05/23 08:00:32;;;;;;;3.27;2.17;;;;;;;;;;5055643;28;20547;-63
2022/05/23 08:03:04;;;;;;;3.27;2.03;;;;;;;;;;5055099;28;20166;-63
2022/05/23 08:05:30;;;;;;;2.50;2.30;;;;;;;;;;5054967;28;20356;-63
2022/05/23 08:07:56;;;;;;;2.33;2.13;;;;;;;;;;5054945;28;20190;-63
2022/05/23 08:10:22;;;;;;;5.07;2.20;;;;;;;;;;5054974;28;20781;-63
2022/05/23 08:12:51;;;;;;;4.07;2.40;;;;;;;;;;5054997;28;20186;-63
2022/05/23 08:15:17;;;;;;;2.37;2.00;;;;;;;;;;5054623;28;20783;-64
2022/05/23 08:17:43;;;;;;;3.33;2.13;;;;;;;;;;5054962;28;20285;-63
2022/05/23 08:20:10;;;;;;;4.27;2.20;;;;;;;;;;5054555;28;20221;-63
2022/05/23 08:22:36;;;;;;;2.43;2.23;;;;;;;;;;5054753;28;20217;-63
2022/05/23 08:25:02;;;;;;;2.60;2.33;;;;;;;;;;5054319;28;20601;-63
2022/05/23 08:27:28;;;;;;;2.00;1.80;;;;;;;;;;5054857;28;20214;-63
2022/05/23 08:29:54;;;;;;;2.00;1.90;;;;;;;;;;5054640;28;20658;-63
2022/05/23 08:32:21;;;;;;;3.10;2.40;;;;;;;;;;5054644;28;20236;-64
2022/05/23 08:34:47;;;;;;;4.47;2.43;;;;;;;;;;5054571;28;20565;-64
2022/05/23 08:37:14;;;;;;;2.50;2.00;;;;;;;;;;5054128;28;20574;-63
2022/05/23 08:39:40;;;;;;;2.47;2.00;;;;;;;;;;5054420;28;20485;-64
2022/05/23 08:42:26;;;;;;;3.63;2.40;;;;;;;;;;5054190;28;20171;-64
2022/05/23 08:44:58;;;;;;;2.67;1.97;;;;;;;;;;5053894;28;20686;-64
2022/05/23 08:47:24;;;;;;;2.13;2.00;;;;;;;;;;5054011;28;20670;-63
2022/05/23 08:49:53;;;;;;;5.43;2.30;;;;;;;;;;5054403;28;20182;-64
2022/05/23 08:52:33;;;;;;;3.87;2.10;;;;;;;;;;5054373;28;20174;-63
2022/05/23 08:55:02;;;;;;;3.73;2.57;;;;;;;;;;5054823;28;20174;-64
2022/05/23 08:57:34;;;;;;;2.20;2.00;;;;;;;;;;5053800;28;20214;-63
2022/05/23 09:00:06;;;;;;;3.83;2.50;;;;;;;;;;5054760;28;20193;-63
2022/05/23 09:02:38;;;;;;;2.30;2.10;;;;;;;;;;5053960;28;20178;-63
2022/05/23 09:05:15;;;;;;;2.40;2.10;;;;;;;;;;5053996;28;20733;-64
2022/05/23 09:08:07;;;;;;;4.03;2.40;;;;;;;;;;5053891;28;20202;-64
2022/05/23 09:10:39;;;;;;;3.07;2.10;;;;;;;;;;5032353;28;20183;-63
2022/05/23 09:13:09;;;;;;;2.33;2.17;;;;;;;;;;5054102;28;20190;-64
2022/05/23 09:15:36;;;;;;;2.50;2.03;;;;;;;;;;5053479;28;20177;-64
2022/05/23 09:18:04;;;;;;;2.17;1.97;;;;;;;;;;5053663;28;20639;-64
2022/05/23 09:20:36;;;;;;;4.47;2.33;;;;;;;;;;5053694;28;20257;-64
2022/05/23 09:23:06;;;;;;;3.47;2.17;;;;;;;;;;5053583;28;20612;-64
2022/05/23 09:25:32;;;;;;;2.30;2.10;;;;;;;;;;5053229;28;20620;-64
2022/05/23 09:28:16;;;;;;;5.47;2.20;;;;;;;;;;5053156;28;20209;-64
2022/05/23 09:30:45;;;;;;;2.30;2.10;;;;;;;;;;5053280;28;20643;-64
2022/05/23 09:33:13;;;;;;;2.37;2.17;;;;;;;;;;5053575;28;20269;-65
2022/05/23 09:35:42;;;;;;;2.87;2.10;;;;;;;;;;5053411;28;20592;-64
2022/05/23 09:38:29;;;;;;;3.83;2.43;;;;;;;;;;5053446;28;20178;-64
2022/05/23 09:40:56;;;;;;;2.47;2.27;;;;;;;;;;5053431;28;20254;-64
2022/05/23 09:49:17;;;;;;;3.93;2.23;;;;;;;;;;5053493;28;20220;-64
2022/05/23 09:52:07;;;;;;;3.17;2.07;;;;;;;;;;5053335;28;20174;-64
2022/05/23 09:54:33;;;;;;;3.17;2.30;;;;;;;;;;5042621;28;20225;-64
2022/05/23 09:57:00;;;;;;;2.17;1.97;;;;;;;;;;5052862;28;20297;-64
2022/05/23 09:59:29;;;;;;;2.47;2.17;;;;;;;;;;5052917;28;20202;-64
2022/05/23 10:01:56;;;;;;;3.00;2.23;;;;;;;;;;5053085;28;20232;-63
2022/05/23 10:04:26;;;;;;;2.97;2.13;;;;;;;;;;5052913;28;20255;-64
2022/05/23 10:06:52;;;;;;;3.03;1.90;;;;;;;;;;5052896;28;20186;-64
2022/05/23 10:09:45;;;;;;;3.50;2.27;;;;;;;;;;5053239;28;20167;-64
2022/05/23 10:12:11;;;;;;;2.93;2.00;;;;;;;;;;5049240;28;20198;-64
2022/05/23 10:14:41;;;;;;;4.00;2.20;;;;;;;;;;5052830;28;20182;-64
2022/05/23 10:17:08;;;;;;;4.37;2.20;;;;;;;;;;5052970;28;20682;-64
2022/05/23 10:19:35;;;;;;;3.60;2.00;;;;;;;;;;5053091;28;20245;-64
2022/05/23 10:22:10;;;;;;;3.33;2.07;;;;;;;;;;5053145;28;20248;-64
2022/05/23 10:24:37;;;;;;;3.33;2.27;;;;;;;;;;5052677;28;20691;-64
2022/05/23 10:27:09;;;;;;;3.00;2.20;;;;;;;;;;5052813;28;20554;-64
2022/05/23 10:29:52;;;;;;;2.20;1.60;;;;;;;;;;5053252;28;20185;-64
2022/05/23 10:32:33;;;;;;;3.53;2.07;;;;;;;;;;5052774;28;20258;-64
2022/05/23 10:35:18;;;;;;;2.27;2.00;;;;;;;;;;5052801;28;20178;-64
2022/05/23 10:37:45;;;;;;;2.00;1.80;;;;;;;;;;5052582;28;20198;-64
2022/05/23 10:43:18;;;;;;;5.23;1.90;;;;;;;;;;5057153;28;20181;-64
2022/05/23 10:45:47;;;;;;;3.20;1.97;;;;;;;;;;5056606;28;20246;-64
2022/05/23 10:48:32;;;;;;;2.20;2.00;;;;;;;;;;5056509;28;20174;-64
2022/05/23 10:51:12;;;;;;;3.40;2.17;;;;;;;;;;5056355;28;20171;-64
2022/05/23 10:53:57;;;;;;;3.07;2.53;;;;;;;;;;5056475;28;20564;-64
2022/05/23 10:56:28;;;;;;;1.97;1.87;;;;;;;;;;5056264;28;20213;-64
2022/05/23 10:58:54;;;;;;;2.20;2.00;;;;;;;;;;5056486;28;20182;-62
2022/05/23 11:01:30;;;;;;;3.23;2.10;;;;;;;;;;5056107;28;20235;-64
2022/05/23 11:04:03;;;;;;;3.50;1.73;;;;;;;;;;5081477;22;20538;-66
2022/05/23 11:06:39;;;;;;;2.97;2.17;;;;;;;;;;5058242;28;20181;-66
2022/05/23 11:09:14;;;;;;;2.37;2.13;;;;;;;;;;5040932;28;20166;-66
2022/05/23 11:11:43;;;;;;;3.67;2.20;;;;;;;;;;5040222;28;20550;-66
2022/05/23 11:14:12;;;;;;;2.70;2.13;;;;;;;;;;5058562;28;20210;-67
2022/05/23 11:16:48;;;;;;;2.67;2.47;;;;;;;;;;5057886;28;20221;-66
2022/05/23 11:19:14;;;;;;;3.33;1.80;;;;;;;;;;5056712;28;20170;-66
2022/05/23 11:21:58;;;;;;;3.23;2.30;;;;;;;;;;5057077;28;20205;-66
2022/05/23 11:24:33;;;;;;;2.30;2.03;;;;;;;;;;5038143;28;20222;-66
2022/05/23 11:35:28;;;;;;;2.73;2.33;;;;;;;;;;5056267;28;20289;-66
2022/05/23 11:37:57;;;;;;;2.10;2.00;;;;;;;;;;5038315;28;20198;-67
2022/05/23 11:40:25;;;;;;;2.00;1.80;;;;;;;;;;5056231;28;20177;-67
2022/05/23 11:42:58;;;;;;;2.50;1.80;;;;;;;;;;5056493;28;20614;-67
2022/05/23 11:48:40;;;;;;;3.97;2.40;;;;;;;;;;5055684;28;20174;-66
2022/05/23 11:51:09;;;;;;;4.07;2.03;;;;;;;;;;5037259;28;20253;-66
2022/05/23 11:53:37;;;;;;;4.27;1.97;;;;;;;;;;5037663;28;20282;-68
2022/05/23 11:56:06;;;;;;;3.50;2.17;;;;;;;;;;5055330;28;20175;-66
2022/05/23 11:58:31;;;;;;;3.20;1.97;;;;;;;;;;5055554;28;20240;-67
2022/05/23 12:01:03;;;;;;;2.57;2.10;;;;;;;;;;5055737;28;20551;-67
2022/05/23 12:03:49;;;;;;;4.43;2.57;;;;;;;;;;5055345;28;20187;-67
2022/05/23 12:06:24;;;;;;;2.53;2.20;;;;;;;;;;5055417;28;20265;-66
2022/05/23 12:08:59;;;;;;;4.63;2.30;;;;;;;;;;5055342;28;20737;-67
2022/05/23 12:11:33;;;;;;;3.07;2.20;;;;;;;;;;5037321;28;20597;-67
2022/05/23 12:14:17;;;;;;;2.57;2.17;;;;;;;;;;5055203;28;20682;-66
2022/05/23 12:16:55;;;;;;;2.87;2.00;;;;;;;;;;5055553;28;20504;-67
2022/05/23 12:19:32;;;;;;;2.00;1.90;;;;;;;;;;5055518;28;20525;-67
2022/05/23 12:22:16;;;;;;;2.53;2.33;;;;;;;;;;5055790;28;20262;-67
2022/05/23 12:25:01;;;;;;;5.83;2.00;;;;;;;;;;5055105;28;20267;-66
2022/05/23 12:27:33;;;;;;;3.00;2.37;;;;;;;;;;5055114;28;20179;-66
2022/05/23 12:30:17;;;;;;;2.43;2.23;;;;;;;;;;5055426;28;20181;-67
2022/05/23 12:33:04;;;;;;;3.23;2.10;;;;;;;;;;5036903;28;20182;-66
2022/05/23 12:35:30;;;;;;;2.90;2.33;;;;;;;;;;5036708;28;20697;-67
2022/05/23 12:37:59;;;;;;;6.40;2.40;;;;;;;;;;5054975;28;20175;-67
2022/05/23 12:40:30;;;;;;;5.43;2.13;;;;;;;;;;5054851;28;20541;-68
2022/05/23 12:42:58;;;;;;;1.90;1.80;;;;;;;;;;5054946;28;20220;-67
2022/05/23 12:45:28;;;;;;;3.20;2.50;;;;;;;;;;5054470;28;20214;-67
2022/05/23 12:48:03;;;;;;;2.47;2.27;;;;;;;;;;5036672;28;20302;-67
2022/05/23 12:50:29;;;;;;;5.50;2.37;;;;;;;;;;5054815;28;20166;-67
2022/05/23 12:52:55;;;;;;;2.50;2.30;;;;;;;;;;5036710;28;20193;-67
2022/05/23 12:55:40;;;;;;;3.90;2.57;;;;;;;;;;5036262;28;20207;-67
2022/05/23 12:58:06;;;;;;;2.70;2.50;;;;;;;;;;5036504;28;20188;-68
2022/05/23 13:00:34;;;;;;;2.70;2.47;;;;;;;;;;5054852;28;20261;-66
2022/05/23 13:03:07;;;;;;;2.73;2.40;;;;;;;;;;5035821;28;20183;-67
2022/05/23 13:05:36;;;;;;;3.20;2.30;;;;;;;;;;5053886;28;20214;-67
2022/05/23 13:08:04;;;;;;;2.50;2.30;;;;;;;;;;5054120;28;20180;-67
2022/05/23 13:10:36;;;;;;;3.47;2.80;;;;;;;;;;5053994;28;20170;-67
2022/05/23 13:13:02;;;;;;;2.57;2.33;;;;;;;;;;5054067;28;20178;-67
2022/05/23 13:15:29;;;;;;;2.70;2.50;;;;;;;;;;5053770;28;20202;-66
2022/05/23 13:23:52;;;;;;;2.87;2.43;;;;;;;;;;4992674;28;20614;-68
2022/05/23 13:26:18;;;;;;;2.73;2.53;;;;;;;;;;5031860;28;20698;-68
2022/05/23 13:28:48;;;;;;;3.63;2.80;;;;;;;;;;5035874;28;20179;-68
2022/05/23 13:31:27;;;;;;;3.87;2.70;;;;;;;;;;5053889;28;20177;-67
2022/05/23 13:33:55;;;;;;;2.70;2.50;;;;;;;;;;5035567;28;20186;-68
2022/05/23 13:36:21;;;;;;;4.47;3.03;;;;;;;;;;5053397;28;20200;-68
2022/05/23 13:39:01;;;;;;;4.37;2.80;;;;;;;;;;5035397;28;20186;-68
2022/05/23 13:41:28;;;;;;;4.20;2.83;;;;;;;;;;5035518;28;20189;-68
2022/05/23 13:43:54;;;;;;;7.30;2.67;;;;;;;;;;5053504;28;20289;-68
2022/05/23 13:46:23;;;;;;;3.83;2.67;;;;;;;;;;5035543;28;20587;-68
2022/05/23 13:48:55;;;;;;;5.20;2.80;;;;;;;;;;5053325;28;20217;-68
2022/05/23 13:51:26;;;;;;;3.13;2.87;;;;;;;;;;5053457;28;20185;-68
2022/05/23 13:53:59;;;;;;;6.87;3.13;;;;;;;;;;5053275;28;20237;-68
2022/05/23 13:56:26;;;;;;;5.33;3.80;;;;;;;;;;5035358;28;20175;-68
2022/05/23 13:58:58;;;;;;;5.70;3.10;;;;;;;;;;5035597;28;20182;-68
2022/05/23 14:01:45;;;;;;;6.20;3.43;;;;;;;;;;5035472;28;20181;-68
2022/05/23 14:04:12;;;;;;;4.20;3.10;;;;;;;;;;5052646;28;20249;-67
2022/05/23 14:06:58;;;;;;;6.97;3.67;;;;;;;;;;5035468;28;20182;-67
2022/05/23 14:09:25;;;;;;;5.40;3.57;;;;;;;;;;5035144;28;20290;-67
2022/05/23 14:11:53;;;;;;;5.13;3.00;;;;;;;;;;5035427;28;20669;-68
2022/05/23 14:14:39;;;;;;;5.17;3.40;;;;;;;;;;5039178;28;20670;-67
2022/05/23 14:17:14;;;;;;;4.27;3.87;;;;;;;;;;5057454;28;20265;-67
2022/05/23 14:19:43;;;;;;;6.47;3.63;;;;;;;;;;5057336;28;20186;-67
2022/05/23 14:22:11;;;;;;;5.03;3.93;;;;;;;;;;5039289;28;20188;-68
2022/05/23 14:24:40;;;;;;;5.47;3.77;;;;;;;;;;5039224;28;20217;-67
2022/05/23 14:27:26;;;;;;;5.30;3.43;;;;;;;;;;5039211;28;20661;-67
2022/05/23 14:30:12;;;;;;;7.13;4.00;;;;;;;;;;5022317;28;20222;-66
2022/05/23 14:32:39;;;;;;;5.20;3.60;;;;;;;;;;5038872;28;20583;-67
2022/05/23 14:35:21;;;;;;;7.30;4.23;;;;;;;;;;5056948;28;20209;-67
2022/05/23 14:37:48;;;;;;;4.70;3.73;;;;;;;;;;5056745;28;20178;-68
2022/05/23 14:40:14;;;;;;;5.33;3.33;;;;;;;;;;5056594;28;20185;-67
2022/05/23 14:42:50;;;;;;;6.10;3.63;;;;;;;;;;5038687;28;20643;-68
2022/05/23 14:45:25;;;;;;;6.63;3.43;;;;;;;;;;5056556;28;20206;-68
2022/05/23 14:47:59;;;;;;;5.93;3.10;;;;;;;;;;5056546;28;20189;-68
2022/05/23 14:50:30;;;;;;;4.40;3.40;;;;;;;;;;5056376;28;20646;-68
2022/05/23 14:55:50;;;;;;;2.70;2.50;;;;;;;;;;5056491;28;20212;-68
2022/05/23 15:01:02;;;;;;;4.13;2.87;;;;;;;;;;5056760;28;20224;-66
2022/05/23 15:03:35;;;;;;;3.37;2.63;;;;;;;;;;5056254;28;20183;-67
2022/05/23 15:06:02;;;;;;;3.20;2.87;;;;;;;;;;5038193;28;20214;-67
2022/05/23 15:08:28;;;;;;;3.13;2.83;;;;;;;;;;5038319;28;20602;-67
2022/05/23 15:10:55;;;;;;;3.07;2.63;;;;;;;;;;5056212;28;20170;-66
2022/05/23 15:13:22;;;;;;;4.33;2.60;;;;;;;;;;5056335;28;20549;-67
2022/05/23 15:15:48;;;;;;;3.83;2.77;;;;;;;;;;5056051;28;20202;-66
2022/05/23 15:18:16;;;;;;;3.03;2.77;;;;;;;;;;5056000;28;20225;-66
2022/05/23 15:20:42;;;;;;;5.27;3.37;;;;;;;;;;5056797;28;20198;-67
2022/05/23 15:23:08;;;;;;;4.47;2.90;;;;;;;;;;5056054;28;20178;-67
2022/05/23 15:25:35;;;;;;;2.90;2.60;;;;;;;;;;5037210;28;20214;-66
2022/05/23 15:28:01;;;;;;;3.07;2.60;;;;;;;;;;5056349;28;20635;-67
2022/05/23 15:30:30;;;;;;;4.60;3.33;;;;;;;;;;5056192;28;20592;-67
2022/05/23 15:32:58;;;;;;;3.00;2.63;;;;;;;;;;5056573;28;20639;-67
2022/05/23 15:35:24;;;;;;;5.23;2.40;;;;;;;;;;5056040;28;20202;-67
2022/05/23 15:37:50;;;;;;;4.33;2.70;;;;;;;;;;5055727;28;20174;-66
2022/05/23 15:40:17;;;;;;;4.10;2.77;;;;;;;;;;5055751;28;20178;-66
2022/05/23 15:42:43;;;;;;;3.60;2.47;;;;;;;;;;5038028;28;20186;-67
2022/05/23 15:45:14;;;;;;;3.72;2.92;;;;;;;;;;5036477;28;20792;-67
2022/05/23 15:47:40;;;;;;;3.10;2.33;;;;;;;;;;5055501;28;20245;-67
2022/05/23 15:50:07;;;;;;;4.27;2.63;;;;;;;;;;5055565;28;20175;-67
2022/05/23 15:52:34;;;;;;;2.90;2.40;;;;;;;;;;5055736;28;20646;-69
2022/05/23 15:55:00;;;;;;;3.13;2.27;;;;;;;;;;5055995;28;20198;-67
2022/05/23 15:57:28;;;;;;;3.77;2.47;;;;;;;;;;5055475;28;20174;-67
2022/05/23 16:00:06;;;;;;;5.53;2.90;;;;;;;;;;5037700;28;20261;-69
2022/05/23 16:02:32;;;;;;;3.53;2.83;;;;;;;;;;5055612;28;20250;-68